Time;durP1;ratioP1;P1;durP2;ratioP2;P2;SDS_P1;SDS_P2;PMS_P1;PMS_P2;Temp;Humidity;BMP_temperature;BMP_pressure;BME280_temperature;BME280_humidity;BME280_pressure;Samples;Min_cycle;Max_cycle;Signal;HPM_P1;HPM_P2
2023/08/21 00:00:38;;;;;;;7.10;4.00;;;;;;;20.13;85.72;101547.40;107277;1260;61190;-57
2023/08/21 00:03:06;;;;;;;9.20;4.30;;;;;;;20.07;85.80;101544.82;107535;1260;61253;-59
2023/08/21 00:05:33;;;;;;;7.90;4.30;;;;;;;20.01;85.96;101545.27;107126;1260;71849;-58
2023/08/21 00:07:59;;;;;;;5.50;4.00;;;;;;;19.95;86.22;101534.63;107372;1260;59364;-55
2023/08/21 00:10:26;;;;;;;10.10;4.30;;;;;;;19.90;86.32;101531.01;107265;1257;61354;-56
2023/08/21 00:12:53;;;;;;;7.30;4.40;;;;;;;19.85;86.70;101531.95;107263;1260;75383;-61
2023/08/21 00:15:19;;;;;;;7.40;3.90;;;;;;;19.81;87.06;101531.39;107383;1259;61109;-58
2023/08/21 00:17:47;;;;;;;7.60;4.40;;;;;;;19.77;87.50;101529.68;107035;1259;61221;-62
2023/08/21 00:20:13;;;;;;;8.50;4.50;;;;;;;19.72;87.58;101527.46;107406;1260;61669;-60
2023/08/21 00:22:40;;;;;;;8.20;4.10;;;;;;;19.66;87.84;101526.80;106897;1258;61173;-61
2023/08/21 00:25:07;;;;;;;7.50;4.50;;;;;;;19.61;88.03;101525.38;107271;1260;61352;-56
2023/08/21 00:27:33;;;;;;;8.10;4.50;;;;;;;19.55;88.26;101528.30;107437;1262;71134;-59
2023/08/21 00:30:00;;;;;;;7.50;4.90;;;;;;;19.49;88.34;101528.46;107153;1259;61301;-53
2023/08/21 00:32:27;;;;;;;8.90;4.60;;;;;;;19.44;88.62;101532.13;107233;1260;62116;-58
2023/08/21 00:34:54;;;;;;;8.60;4.80;;;;;;;19.39;88.90;101529.74;107143;1260;61146;-62
2023/08/21 00:37:20;;;;;;;7.00;4.50;;;;;;;19.33;89.09;101526.38;107237;1262;61238;-58
2023/08/21 00:39:47;;;;;;;8.30;4.40;;;;;;;19.29;89.59;101523.08;107315;1262;61008;-58
2023/08/21 00:42:13;;;;;;;9.20;4.60;;;;;;;19.25;89.81;101520.86;107207;1262;59272;-59
2023/08/21 00:44:40;;;;;;;6.60;4.50;;;;;;;19.21;89.78;101518.39;107567;1259;61375;-57
2023/08/21 00:47:06;;;;;;;6.70;4.50;;;;;;;19.17;89.93;101513.02;107333;1263;61171;-55
2023/08/21 00:49:33;;;;;;;7.90;4.70;;;;;;;19.14;90.07;101504.64;107088;1259;73461;-59
2023/08/21 00:52:01;;;;;;;7.70;4.60;;;;;;;19.12;90.25;101504.38;107103;1262;70035;-60
2023/08/21 00:54:28;;;;;;;6.50;4.60;;;;;;;19.08;90.75;101504.90;107298;1260;70174;-55
2023/08/21 00:56:55;;;;;;;6.00;4.50;;;;;;;19.04;90.87;101504.99;107383;1260;61137;-59
2023/08/21 00:59:22;;;;;;;7.10;4.60;;;;;;;18.99;90.93;101504.06;107316;1259;61250;-53
2023/08/21 01:01:48;;;;;;;7.80;4.60;;;;;;;18.94;91.06;101506.09;107263;1260;74609;-58
2023/08/21 01:04:15;;;;;;;9.70;4.90;;;;;;;18.90;91.24;101507.38;107365;1260;70115;-58
2023/08/21 01:06:42;;;;;;;8.80;4.60;;;;;;;18.87;91.75;101507.69;107194;1260;72741;-56
2023/08/21 01:09:17;;;;;;;5.90;4.50;;;;;;;18.84;92.12;101504.88;107246;1259;61234;-57
2023/08/21 01:12:02;;;;;;;6.50;5.00;;;;;;;18.81;92.46;101507.28;106872;1260;61183;-55
2023/08/21 01:14:53;;;;;;;7.30;4.80;;;;;;;18.76;92.90;101505.48;107002;1261;72464;-60
2023/08/21 01:17:22;;;;;;;6.60;4.50;;;;;;;18.72;92.82;101508.17;107106;1262;71617;-53
2023/08/21 01:19:51;;;;;;;7.70;4.20;;;;;;;18.68;92.95;101514.63;107251;1263;71485;-58
2023/08/21 01:22:18;;;;;;;7.60;4.20;;;;;;;18.64;93.12;101519.66;107117;1259;61397;-61
2023/08/21 01:24:44;;;;;;;8.40;4.40;;;;;;;18.59;93.26;101522.27;107583;1262;61583;-57
2023/08/21 01:27:13;;;;;;;9.80;4.40;;;;;;;18.55;93.41;101521.09;106988;1263;61247;-61
2023/08/21 01:29:40;;;;;;;8.50;4.60;;;;;;;18.50;93.68;101515.48;106942;1261;70905;-58
2023/08/21 01:32:11;;;;;;;6.60;4.40;;;;;;;18.47;93.82;101514.69;107159;1259;61276;-57
2023/08/21 01:34:39;;;;;;;10.90;4.40;;;;;;;18.43;93.76;101516.13;107493;1260;62839;-58
2023/08/21 01:37:07;;;;;;;7.40;4.30;;;;;;;18.38;93.86;101512.16;106982;1261;61582;-54
2023/08/21 01:39:34;;;;;;;7.30;4.50;;;;;;;18.34;94.04;101507.41;106972;1262;74024;-62
2023/08/21 01:42:00;;;;;;;7.60;4.40;;;;;;;18.31;94.28;101504.77;107388;1261;70542;-56
2023/08/21 01:44:30;;;;;;;8.10;4.80;;;;;;;18.28;94.63;101509.27;107116;1261;72901;-58
2023/08/21 01:46:56;;;;;;;9.10;5.30;;;;;;;18.25;94.93;101512.15;106958;1262;61222;-58
2023/08/21 01:49:23;;;;;;;6.90;4.60;;;;;;;18.23;95.15;101516.24;106972;1258;61292;-57
2023/08/21 01:51:49;;;;;;;8.20;4.60;;;;;;;18.21;95.26;101516.58;107432;1260;60264;-56
2023/08/21 01:54:16;;;;;;;8.30;4.50;;;;;;;18.17;95.65;101517.98;107095;1260;61272;-60
2023/08/21 01:56:42;;;;;;;9.90;4.60;;;;;;;18.13;96.08;101519.88;107209;1260;61365;-57
2023/08/21 01:59:09;;;;;;;7.30;4.40;;;;;;;18.10;96.48;101520.98;107512;1260;59431;-64
2023/08/21 02:01:35;;;;;;;7.80;4.80;;;;;;;18.07;96.85;101516.77;107074;1262;61265;-57
2023/08/21 02:04:02;;;;;;;9.10;4.70;;;;;;;18.04;96.96;101514.29;107210;1259;61259;-61
2023/08/21 02:06:29;;;;;;;7.90;4.80;;;;;;;18.02;97.08;101514.24;107162;1261;59183;-58
2023/08/21 02:08:55;;;;;;;14.50;5.40;;;;;;;18.00;97.24;101517.36;107500;1260;61734;-58
2023/08/21 02:11:21;;;;;;;6.50;4.60;;;;;;;17.98;97.27;101520.75;107144;1261;61322;-53
2023/08/21 02:13:48;;;;;;;10.90;5.40;;;;;;;17.95;97.47;101524.43;107146;1259;61746;-57
2023/08/21 02:16:14;;;;;;;8.40;5.00;;;;;;;17.93;97.52;101525.73;107171;1258;61394;-61
2023/08/21 02:18:41;;;;;;;8.00;5.00;;;;;;;17.92;97.71;101527.52;107213;1260;61352;-62
2023/08/21 02:21:07;;;;;;;6.80;5.00;;;;;;;17.91;97.84;101524.64;106941;1259;61264;-58
2023/08/21 02:23:34;;;;;;;7.40;4.70;;;;;;;17.88;97.97;101522.48;107387;1263;61353;-59
2023/08/21 02:26:00;;;;;;;8.30;4.80;;;;;;;17.86;97.96;101521.00;107215;1261;61186;-57
2023/08/21 02:28:27;;;;;;;8.00;4.90;;;;;;;17.83;98.28;101522.42;107368;1260;61763;-58
2023/08/21 02:30:53;;;;;;;7.70;4.70;;;;;;;17.81;98.20;101520.33;107190;1259;60833;-59
2023/08/21 02:33:20;;;;;;;5.60;4.30;;;;;;;17.80;98.21;101521.77;107161;1260;61369;-58
2023/08/21 02:35:47;;;;;;;8.00;4.70;;;;;;;17.78;98.31;101519.86;107446;1263;60791;-59
2023/08/21 02:38:13;;;;;;;8.00;4.90;;;;;;;17.76;98.42;101520.14;107150;1260;61253;-55
2023/08/21 02:40:39;;;;;;;7.80;4.90;;;;;;;17.73;98.68;101521.88;107215;1261;61348;-56
2023/08/21 02:43:06;;;;;;;7.60;5.10;;;;;;;17.72;98.80;101527.77;107321;1260;61285;-55
2023/08/21 02:45:32;;;;;;;11.20;5.30;;;;;;;17.71;98.88;101529.39;107267;1259;60397;-56
2023/08/21 02:47:59;;;;;;;10.50;5.10;;;;;;;17.70;99.04;101527.84;107099;1261;61593;-60
2023/08/21 02:50:25;;;;;;;8.80;4.80;;;;;;;17.69;99.29;101525.11;107153;1260;61217;-59
2023/08/21 02:52:52;;;;;;;7.70;5.20;;;;;;;17.68;99.42;101524.17;107515;1261;61262;-55
2023/08/21 02:55:18;;;;;;;7.50;4.60;;;;;;;17.67;99.64;101520.48;107093;1261;61301;-59
2023/08/21 02:57:45;;;;;;;11.20;4.80;;;;;;;17.65;99.84;101517.96;107331;1260;61718;-55
2023/08/21 03:00:12;;;;;;;8.80;4.70;;;;;;;17.65;99.79;101515.15;107201;1259;61323;-57
2023/08/21 03:02:42;;;;;;;7.60;4.70;;;;;;;17.66;99.71;101513.62;107520;1260;58995;-57
2023/08/21 03:05:11;;;;;;;6.90;4.60;;;;;;;17.66;99.62;101517.21;107361;1260;74760;-57
2023/08/21 03:07:38;;;;;;;8.20;4.80;;;;;;;17.65;99.50;101522.55;107251;1259;70128;-56
2023/08/21 03:10:05;;;;;;;7.70;4.90;;;;;;;17.65;99.56;101523.79;107458;1257;72688;-56
2023/08/21 03:12:32;;;;;;;6.80;4.30;;;;;;;17.63;99.55;101523.30;107148;1261;61187;-58
2023/08/21 03:14:58;;;;;;;7.40;4.70;;;;;;;17.63;99.78;101517.91;107274;1260;61243;-55
2023/08/21 03:17:27;;;;;;;7.10;4.80;;;;;;;17.61;99.88;101515.97;107235;1259;73554;-57
2023/08/21 03:19:54;;;;;;;6.80;4.40;;;;;;;17.61;99.98;101520.31;107573;1259;61228;-57
2023/08/21 03:22:20;;;;;;;7.80;4.70;;;;;;;17.59;100.00;101527.80;107171;1260;61151;-57
2023/08/21 03:24:47;;;;;;;7.40;4.50;;;;;;;17.57;100.00;101522.52;107444;1260;59226;-60
2023/08/21 03:27:16;;;;;;;5.90;4.20;;;;;;;17.55;100.00;101527.17;107083;1261;62027;-57
2023/08/21 03:29:48;;;;;;;9.10;4.90;;;;;;;17.52;100.00;101528.04;107731;1260;73578;-58
2023/08/21 03:32:18;;;;;;;9.90;5.00;;;;;;;17.50;100.00;101522.61;107211;1260;70977;-54
2023/08/21 03:34:44;;;;;;;9.50;4.80;;;;;;;17.48;100.00;101519.98;107455;1260;71727;-58
2023/08/21 03:37:11;;;;;;;7.90;4.50;;;;;;;17.47;100.00;101519.48;107386;1259;60576;-60
2023/08/21 03:39:39;;;;;;;8.60;5.00;;;;;;;17.46;100.00;101518.52;107125;1259;62997;-55
2023/08/21 03:42:05;;;;;;;7.20;5.10;;;;;;;17.46;100.00;101523.30;107384;1260;74419;-58
2023/08/21 03:44:32;;;;;;;9.10;5.20;;;;;;;17.46;100.00;101526.02;107240;1259;61307;-59
2023/08/21 03:46:58;;;;;;;10.00;5.10;;;;;;;17.46;100.00;101524.91;107363;1261;59503;-55
2023/08/21 03:49:24;;;;;;;8.20;4.80;;;;;;;17.46;100.00;101528.46;107509;1259;61084;-56
2023/08/21 03:51:51;;;;;;;8.80;4.50;;;;;;;17.48;100.00;101528.42;107343;1259;59728;-57
2023/08/21 03:54:17;;;;;;;7.90;4.80;;;;;;;17.49;100.00;101529.68;107452;1259;61234;-56
2023/08/21 03:56:44;;;;;;;8.00;4.80;;;;;;;17.51;100.00;101526.88;107260;1260;61761;-57
2023/08/21 03:59:10;;;;;;;8.90;4.80;;;;;;;17.55;100.00;101529.94;107304;1261;61515;-56
2023/08/21 04:01:37;;;;;;;6.80;4.60;;;;;;;17.57;100.00;101527.85;107316;1259;59125;-57
2023/08/21 04:04:03;;;;;;;9.20;4.70;;;;;;;17.60;100.00;101532.77;107664;1260;61343;-58
2023/08/21 04:06:30;;;;;;;8.30;4.40;;;;;;;17.65;100.00;101525.81;107485;1259;61689;-59
2023/08/21 04:08:56;;;;;;;7.50;4.40;;;;;;;17.71;100.00;101524.30;107385;1260;61387;-56
2023/08/21 04:11:23;;;;;;;9.40;4.00;;;;;;;17.77;100.00;101521.63;107134;1260;61326;-58
2023/08/21 04:13:49;;;;;;;10.30;3.90;;;;;;;17.83;100.00;101523.73;107528;1260;60537;-57
2023/08/21 04:16:17;;;;;;;10.00;4.30;;;;;;;17.89;100.00;101529.38;107632;1260;61267;-56
2023/08/21 04:18:44;;;;;;;8.90;4.40;;;;;;;17.95;100.00;101525.88;107393;1262;73816;-61
2023/08/21 04:21:11;;;;;;;7.00;4.00;;;;;;;18.01;100.00;101530.15;107365;1259;59751;-57
2023/08/21 04:23:37;;;;;;;9.60;4.30;;;;;;;18.05;100.00;101532.42;107733;1259;59373;-59
2023/08/21 04:26:04;;;;;;;9.30;4.00;;;;;;;18.08;100.00;101530.23;107496;1260;61392;-56
2023/08/21 04:28:32;;;;;;;7.60;4.00;;;;;;;18.10;100.00;101531.15;107094;1259;61257;-60
2023/08/21 04:30:58;;;;;;;7.90;4.20;;;;;;;18.14;100.00;101533.02;107453;1260;74806;-58
2023/08/21 04:33:26;;;;;;;7.80;4.70;;;;;;;18.18;100.00;101535.33;107798;1260;71263;-56
2023/08/21 04:35:52;;;;;;;10.30;4.70;;;;;;;18.22;100.00;101534.67;107506;1260;73089;-59
2023/08/21 04:38:19;;;;;;;11.00;5.30;;;;;;;18.25;100.00;101537.44;107420;1259;61144;-56
2023/08/21 04:40:45;;;;;;;9.90;4.60;;;;;;;18.26;100.00;101537.70;107535;1260;61279;-60
2023/08/21 04:43:12;;;;;;;10.40;4.80;;;;;;;18.26;100.00;101543.27;107279;1259;61151;-60
2023/08/21 04:45:38;;;;;;;9.90;4.60;;;;;;;18.27;100.00;101545.95;107483;1260;61311;-55
2023/08/21 04:48:05;;;;;;;7.60;4.60;;;;;;;18.29;100.00;101543.02;107522;1259;61707;-58
2023/08/21 04:50:31;;;;;;;9.70;4.60;;;;;;;18.33;100.00;101540.02;107522;1260;61252;-57
2023/08/21 04:52:58;;;;;;;6.90;4.60;;;;;;;18.41;100.00;101539.16;107566;1260;61247;-59
2023/08/21 04:55:24;;;;;;;8.40;4.50;;;;;;;18.45;99.79;101537.88;107361;1260;59376;-56
2023/08/21 04:57:51;;;;;;;7.30;4.50;;;;;;;18.49;99.81;101533.58;107818;1259;61392;-57
2023/08/21 05:00:18;;;;;;;8.90;4.50;;;;;;;18.52;99.57;101538.36;107646;1258;61322;-58
2023/08/21 05:02:44;;;;;;;7.60;4.20;;;;;;;18.54;99.27;101545.77;107493;1260;61675;-56
2023/08/21 05:05:11;;;;;;;7.20;4.20;;;;;;;18.56;99.04;101545.46;107774;1258;60385;-49
2023/08/21 05:07:37;;;;;;;8.20;4.30;;;;;;;18.62;99.08;101545.06;107482;1261;59182;-50
2023/08/21 05:10:04;;;;;;;7.60;4.30;;;;;;;18.68;98.73;101545.10;107406;1259;59349;-50
2023/08/21 05:12:31;;;;;;;8.20;4.10;;;;;;;18.77;98.51;101543.70;107408;1260;72664;-51
2023/08/21 05:14:57;;;;;;;7.70;4.10;;;;;;;18.88;98.43;101544.25;107696;1259;61135;-56
2023/08/21 05:17:26;;;;;;;5.90;3.90;;;;;;;18.99;98.29;101548.60;107580;1260;59551;-49
2023/08/21 05:19:53;;;;;;;7.00;3.90;;;;;;;19.10;97.77;101553.54;107654;1258;73174;-53
2023/08/21 05:22:19;;;;;;;6.50;3.90;;;;;;;19.21;97.32;101561.05;107700;1259;59522;-50
2023/08/21 05:24:46;;;;;;;7.00;3.60;;;;;;;19.30;97.00;101560.40;107627;1259;60282;-55
2023/08/21 05:27:14;;;;;;;7.40;3.70;;;;;;;19.39;96.48;101561.29;107478;1259;62011;-51
2023/08/21 05:29:40;;;;;;;8.90;3.90;;;;;;;19.47;96.17;101558.67;107394;1260;61250;-53
2023/08/21 05:32:07;;;;;;;6.30;4.00;;;;;;;19.54;95.55;101563.96;107695;1259;61263;-52
2023/08/21 05:34:33;;;;;;;7.70;3.90;;;;;;;19.58;94.99;101568.21;107827;1259;60890;-54
2023/08/21 05:36:59;;;;;;;5.50;3.50;;;;;;;19.62;94.88;101570.42;107445;1258;59261;-57
2023/08/21 05:39:26;;;;;;;7.90;4.00;;;;;;;19.69;94.82;101567.59;107246;1259;63058;-52
2023/08/21 05:41:53;;;;;;;9.00;3.70;;;;;;;19.75;94.54;101566.42;107248;1262;59559;-51
2023/08/21 05:44:19;;;;;;;6.30;3.60;;;;;;;19.80;94.19;101561.39;107787;1259;58913;-53
2023/08/21 05:46:46;;;;;;;6.50;3.40;;;;;;;19.84;93.55;101563.15;107401;1259;61094;-52
2023/08/21 05:49:13;;;;;;;5.90;3.50;;;;;;;19.84;92.80;101560.98;107307;1259;72373;-47
2023/08/21 05:51:39;;;;;;;7.90;3.60;;;;;;;19.83;92.16;101568.30;107457;1259;61329;-57
2023/08/21 05:54:05;;;;;;;7.60;3.50;;;;;;;19.85;92.27;101566.25;107144;1260;61111;-48
2023/08/21 05:56:32;;;;;;;10.20;4.00;;;;;;;19.90;92.15;101568.92;107409;1262;61212;-54
2023/08/21 05:58:58;;;;;;;7.30;3.40;;;;;;;19.94;91.61;101572.88;107670;1259;61243;-54
2023/08/21 06:01:25;;;;;;;6.60;3.50;;;;;;;19.95;91.17;101575.71;107388;1259;60273;-54
2023/08/21 06:03:51;;;;;;;7.70;3.30;;;;;;;20.00;91.00;101580.01;106948;1259;61761;-54
2023/08/21 06:06:18;;;;;;;9.30;3.70;;;;;;;20.02;90.71;101583.47;107543;1260;59352;-49
2023/08/21 06:08:44;;;;;;;6.50;3.30;;;;;;;20.09;90.83;101585.84;107853;1258;59261;-53
2023/08/21 06:11:11;;;;;;;8.70;3.50;;;;;;;20.16;90.46;101587.54;107513;1258;59899;-53
2023/08/21 06:13:37;;;;;;;7.30;3.30;;;;;;;20.24;90.29;101587.70;107347;1259;61283;-49
2023/08/21 06:16:04;;;;;;;8.30;3.60;;;;;;;20.35;89.87;101590.92;107483;1259;61371;-52
2023/08/21 06:18:30;;;;;;;7.60;3.60;;;;;;;20.44;88.80;101584.44;107029;1259;61192;-52
2023/08/21 06:20:57;;;;;;;7.30;3.30;;;;;;;20.59;88.29;101584.17;107886;1259;61287;-50
2023/08/21 06:23:23;;;;;;;6.80;3.50;;;;;;;20.75;87.74;101589.66;108750;1259;60110;-51
2023/08/21 06:25:50;;;;;;;9.40;3.20;;;;;;;20.93;87.32;101585.27;108762;1258;59045;-52
2023/08/21 06:28:17;;;;;;;7.20;3.00;;;;;;;21.10;86.03;101593.64;108018;1259;59387;-52
2023/08/21 06:30:44;;;;;;;6.40;3.30;;;;;;;21.23;85.19;101591.60;107852;1259;59812;-49
2023/08/21 06:33:10;;;;;;;5.00;3.00;;;;;;;21.37;84.28;101591.67;108479;1258;74338;-55
2023/08/21 06:35:37;;;;;;;7.70;2.90;;;;;;;21.49;83.56;101590.11;108061;1259;70457;-50
2023/08/21 06:38:05;;;;;;;7.10;2.90;;;;;;;21.58;82.83;101592.86;107665;1259;71454;-50
2023/08/21 06:40:32;;;;;;;7.20;2.90;;;;;;;21.70;82.40;101594.11;107539;1260;60743;-50
2023/08/21 06:42:58;;;;;;;7.40;3.00;;;;;;;21.84;82.51;101596.76;107751;1259;61679;-48
2023/08/21 06:45:25;;;;;;;7.00;2.80;;;;;;;21.98;81.61;101598.12;107766;1259;74774;-51
2023/08/21 06:47:51;;;;;;;5.00;2.50;;;;;;;22.04;80.29;101590.38;107523;1259;61177;-52
2023/08/21 06:50:18;;;;;;;5.70;2.60;;;;;;;22.10;80.49;101595.09;107907;1258;61178;-50
2023/08/21 06:52:44;;;;;;;7.80;3.10;;;;;;;22.18;80.47;101594.05;107647;1259;61328;-55
2023/08/21 06:55:11;;;;;;;5.80;2.50;;;;;;;22.28;79.91;101588.61;107790;1259;61173;-52
2023/08/21 06:57:37;;;;;;;5.30;2.50;;;;;;;22.34;79.25;101590.86;107535;1259;59283;-50
2023/08/21 07:00:08;;;;;;;6.50;2.80;;;;;;;22.40;78.77;101600.44;107148;1259;245279;-49
2023/08/21 07:02:34;;;;;;;6.10;2.70;;;;;;;22.52;78.94;101603.75;107612;1259;70425;-52
2023/08/21 07:05:02;;;;;;;6.00;3.10;;;;;;;22.63;78.75;101607.32;107849;1259;61152;-56
2023/08/21 07:07:29;;;;;;;5.60;2.60;;;;;;;22.82;79.19;101607.30;107844;1258;59368;-50
2023/08/21 07:09:56;;;;;;;4.90;2.10;;;;;;;23.05;78.19;101608.21;107837;1259;76052;-55
2023/08/21 07:12:22;;;;;;;4.90;2.60;;;;;;;23.16;77.07;101612.58;107840;1260;71237;-49
2023/08/21 07:14:49;;;;;;;6.20;2.40;;;;;;;23.25;76.33;101612.23;107700;1259;61206;-52
2023/08/21 07:17:15;;;;;;;6.60;2.30;;;;;;;23.35;75.58;101608.89;107660;1259;62166;-54
2023/08/21 07:19:42;;;;;;;6.80;2.30;;;;;;;23.44;74.75;101609.94;107791;1259;59113;-49
2023/08/21 07:22:11;;;;;;;7.80;2.30;;;;;;;23.51;74.68;101601.86;108127;1260;75330;-54
2023/08/21 07:24:38;;;;;;;5.70;2.40;;;;;;;23.56;74.10;101602.13;107653;1259;61256;-50
2023/08/21 07:27:04;;;;;;;6.30;1.70;;;;;;;23.54;72.41;101602.02;108013;1259;61180;-49
2023/08/21 07:29:31;;;;;;;9.90;2.30;;;;;;;23.46;71.65;101603.16;107921;1259;61106;-50
2023/08/21 07:31:57;;;;;;;7.60;2.00;;;;;;;23.43;71.97;101604.95;107767;1260;59202;-52
2023/08/21 07:34:23;;;;;;;10.50;1.90;;;;;;;23.42;72.12;101605.57;107767;1259;61259;-53
2023/08/21 07:36:50;;;;;;;7.10;2.10;;;;;;;23.47;71.86;101604.16;107920;1259;59301;-52
2023/08/21 07:39:16;;;;;;;5.60;1.50;;;;;;;23.61;71.65;101606.89;107746;1258;59274;-54
2023/08/21 07:41:43;;;;;;;7.20;1.60;;;;;;;23.78;70.75;101612.59;108000;1258;61822;-50
2023/08/21 07:44:09;;;;;;;5.00;1.70;;;;;;;23.91;69.48;101617.80;107715;1259;59924;-54
2023/08/21 07:46:36;;;;;;;7.60;1.80;;;;;;;23.94;68.29;101620.14;107830;1259;61346;-55
2023/08/21 07:49:02;;;;;;;4.90;1.70;;;;;;;24.00;68.62;101625.77;108221;1259;61355;-52
2023/08/21 07:51:29;;;;;;;5.60;1.50;;;;;;;24.07;67.88;101625.25;107846;1259;61353;-50
2023/08/21 07:53:55;;;;;;;5.70;1.60;;;;;;;24.12;68.37;101629.21;107716;1259;61305;-49
2023/08/21 07:56:25;;;;;;;4.30;1.70;;;;;;;24.23;68.01;101626.14;107959;1259;60464;-51
2023/08/21 07:58:51;;;;;;;5.20;1.40;;;;;;;24.34;68.07;101628.08;107817;1259;59415;-49
2023/08/21 08:01:20;;;;;;;4.60;1.60;;;;;;;24.46;67.94;101630.45;108244;1258;61187;-52
2023/08/21 08:03:47;;;;;;;5.60;1.90;;;;;;;24.51;67.07;101635.55;107818;1258;71439;-48
2023/08/21 08:06:13;;;;;;;5.40;1.50;;;;;;;24.48;66.38;101634.48;108046;1259;61154;-51
2023/08/21 08:08:40;;;;;;;4.10;1.30;;;;;;;24.51;66.56;101640.27;107614;1259;61163;-52
2023/08/21 08:11:07;;;;;;;3.50;1.20;;;;;;;24.52;66.24;101633.23;107871;1259;74725;-49
2023/08/21 08:13:33;;;;;;;4.90;1.60;;;;;;;24.57;66.35;101631.42;107782;1259;63008;-52
2023/08/21 08:16:00;;;;;;;4.80;1.60;;;;;;;24.61;66.06;101635.03;107861;1257;61116;-48
2023/08/21 08:18:27;;;;;;;6.20;1.80;;;;;;;24.67;66.60;101633.05;108164;1259;60740;-52
2023/08/21 08:20:53;;;;;;;5.10;1.50;;;;;;;24.81;67.03;101631.91;108383;1259;59388;-54
2023/08/21 08:23:20;;;;;;;4.80;1.50;;;;;;;24.90;65.91;101635.70;108067;1259;59291;-51
2023/08/21 08:25:47;;;;;;;8.20;1.80;;;;;;;24.99;65.64;101629.64;108234;1259;71737;-55
2023/08/21 08:28:13;;;;;;;3.20;1.20;;;;;;;25.09;65.00;101627.94;108148;1259;61375;-53
2023/08/21 08:30:40;;;;;;;7.00;1.70;;;;;;;25.23;64.86;101625.27;107759;1259;61250;-49
2023/08/21 08:33:06;;;;;;;3.80;1.50;;;;;;;25.46;64.67;101628.21;107950;1259;59105;-49
2023/08/21 08:35:33;;;;;;;4.70;1.50;;;;;;;25.68;63.53;101624.34;107917;1259;61768;-55
2023/08/21 08:37:59;;;;;;;4.80;1.60;;;;;;;25.80;61.88;101625.46;108167;1258;61324;-51
2023/08/21 08:40:26;;;;;;;5.30;1.70;;;;;;;25.89;62.17;101624.39;108123;1258;61266;-53
2023/08/21 08:42:52;;;;;;;6.40;1.50;;;;;;;26.04;61.79;101629.17;107902;1260;61372;-50
2023/08/21 08:45:32;;;;;;;5.60;1.60;;;;;;;26.10;60.23;101629.90;107957;1259;59466;-51
2023/08/21 08:48:02;;;;;;;5.00;1.20;;;;;;;26.14;59.78;101631.94;107812;1259;74539;-51
2023/08/21 08:50:33;;;;;;;5.30;1.20;;;;;;;26.14;59.62;101631.13;107807;1259;71026;-51
2023/08/21 08:53:00;;;;;;;3.70;1.20;;;;;;;26.17;59.98;101630.08;107967;1259;71771;-55
2023/08/21 08:55:40;;;;;;;5.50;1.50;;;;;;;26.24;60.14;101630.52;107961;1259;60602;-52
2023/08/21 08:58:07;;;;;;;4.60;1.60;;;;;;;26.44;59.62;101632.50;108296;1258;60429;-48
2023/08/21 09:00:33;;;;;;;4.60;1.30;;;;;;;26.59;58.85;101624.96;107926;1259;74879;-50
2023/08/21 09:03:00;;;;;;;3.90;1.20;;;;;;;26.69;57.04;101621.95;108079;1258;59756;-48
2023/08/21 09:05:26;;;;;;;4.20;1.10;;;;;;;26.74;57.20;101619.11;108036;1258;72649;-48
2023/08/21 09:08:11;;;;;;;5.70;1.20;;;;;;;26.81;54.91;101614.98;107890;1259;59171;-52
2023/08/21 09:10:40;;;;;;;5.00;1.10;;;;;;;26.89;54.62;101616.28;107979;1257;61391;-48
2023/08/21 09:13:15;;;;;;;4.00;1.10;;;;;;;27.06;54.78;101620.03;107941;1259;73465;-55
2023/08/21 09:15:43;;;;;;;5.30;1.20;;;;;;;27.18;54.52;101620.27;108133;1259;69992;-51
2023/08/21 09:18:11;;;;;;;4.90;1.00;;;;;;;27.19;51.14;101622.71;108090;1259;71398;-52
2023/08/21 09:20:38;;;;;;;3.10;0.90;;;;;;;27.28;51.93;101619.75;108023;1259;62476;-50
2023/08/21 09:23:04;;;;;;;4.30;1.30;;;;;;;27.39;52.10;101611.63;108060;1258;59433;-49
2023/08/21 09:25:38;;;;;;;5.00;1.30;;;;;;;27.56;50.84;101615.02;107975;1259;74487;-48
2023/08/21 09:28:07;;;;;;;4.50;1.30;;;;;;;27.73;49.84;101607.77;107860;1258;71389;-54
2023/08/21 09:30:50;;;;;;;3.30;0.90;;;;;;;27.87;49.96;101605.21;108026;1259;71447;-49
2023/08/21 09:33:19;;;;;;;7.20;1.20;;;;;;;27.93;49.22;101603.39;107825;1258;60427;-49
2023/08/21 09:35:45;;;;;;;3.70;1.10;;;;;;;27.95;49.72;101604.59;107674;1259;60084;-51
2023/08/21 09:38:12;;;;;;;2.90;1.00;;;;;;;28.04;49.52;101605.52;108355;1258;74340;-48
2023/08/21 09:40:51;;;;;;;5.80;1.20;;;;;;;28.00;48.90;101604.42;108078;1259;70488;-50
2023/08/21 09:43:18;;;;;;;2.40;1.00;;;;;;;28.08;49.50;101603.13;107838;1258;73270;-48
2023/08/21 09:45:49;;;;;;;6.20;1.10;;;;;;;28.21;49.41;101604.63;108096;1259;61181;-49
2023/08/21 09:48:16;;;;;;;5.30;1.20;;;;;;;28.30;49.55;101606.43;108026;1259;61183;-50
2023/08/21 09:50:43;;;;;;;3.50;1.30;;;;;;;28.42;49.37;101604.64;108017;1259;74992;-47
2023/08/21 09:53:12;;;;;;;5.60;1.20;;;;;;;28.57;48.58;101606.45;107859;1257;72794;-49
2023/08/21 09:55:39;;;;;;;3.60;1.10;;;;;;;28.71;48.35;101602.29;108008;1259;62528;-52
2023/08/21 09:58:06;;;;;;;4.00;1.00;;;;;;;28.88;48.14;101597.18;108083;1258;59441;-50
2023/08/21 10:00:35;;;;;;;2.90;1.00;;;;;;;29.02;47.73;101603.27;108185;1258;61181;-49
2023/08/21 10:03:07;;;;;;;5.90;1.20;;;;;;;29.15;47.47;101605.06;108143;1259;75056;-49
2023/08/21 10:05:35;;;;;;;3.80;1.00;;;;;;;29.29;46.67;101604.91;108132;1259;70078;-51
2023/08/21 10:08:03;;;;;;;3.50;1.00;;;;;;;29.34;46.31;101598.44;108041;1258;72378;-50
2023/08/21 10:10:35;;;;;;;3.20;1.00;;;;;;;29.45;46.99;101606.55;108224;1258;61859;-52
2023/08/21 10:13:03;;;;;;;4.80;1.30;;;;;;;29.63;46.45;101609.95;108236;1258;61187;-49
2023/08/21 10:15:32;;;;;;;3.80;1.20;;;;;;;29.68;45.46;101614.91;107943;1259;73639;-47
2023/08/21 10:18:21;;;;;;;3.50;1.40;;;;;;;29.74;45.44;101613.76;108086;1259;72351;-48
2023/08/21 10:20:48;;;;;;;6.20;1.30;;;;;;;29.78;45.47;101612.80;107918;1259;72698;-51
2023/08/21 10:23:28;;;;;;;4.10;1.00;;;;;;;29.73;45.85;101612.73;108273;1258;59492;-49
2023/08/21 10:26:00;;;;;;;4.50;1.20;;;;;;;29.72;44.97;101609.89;108039;1260;60301;-50
2023/08/21 10:28:49;;;;;;;3.40;1.00;;;;;;;29.63;45.13;101613.13;108040;1259;73225;-52
2023/08/21 10:31:26;;;;;;;3.90;1.10;;;;;;;29.42;44.46;101616.88;108205;1259;70064;-54
2023/08/21 10:33:53;;;;;;;3.40;1.10;;;;;;;29.11;44.57;101618.08;108036;1259;72531;-50
2023/08/21 10:36:38;;;;;;;4.00;0.90;;;;;;;28.98;45.40;101615.35;107967;1258;61263;-51
2023/08/21 10:39:13;;;;;;;4.00;1.00;;;;;;;29.00;45.56;101621.64;108466;1259;59192;-54
2023/08/21 10:41:39;;;;;;;4.10;1.20;;;;;;;29.01;45.53;101626.11;108087;1259;74655;-52
2023/08/21 10:44:06;;;;;;;3.80;0.90;;;;;;;28.98;44.75;101619.08;107817;1259;59675;-49
2023/08/21 10:46:52;;;;;;;5.70;1.00;;;;;;;28.92;44.34;101620.38;108085;1259;71464;-52
2023/08/21 10:49:19;;;;;;;4.00;1.00;;;;;;;29.05;45.09;101616.11;108015;1259;62017;-49
2023/08/21 10:51:45;;;;;;;5.50;1.10;;;;;;;29.20;44.65;101611.83;107880;1259;61147;-51
2023/08/21 10:54:16;;;;;;;4.70;1.10;;;;;;;29.27;43.43;101609.17;108145;1259;73772;-51
2023/08/21 10:56:42;;;;;;;3.20;0.90;;;;;;;29.10;41.44;101605.67;108350;1259;70691;-51
2023/08/21 10:59:09;;;;;;;7.80;1.60;;;;;;;28.88;41.95;101606.14;108048;1258;59098;-49
2023/08/21 11:01:45;;;;;;;5.20;1.00;;;;;;;28.77;42.54;101600.36;107993;1258;61266;-52
2023/08/21 11:04:12;;;;;;;3.10;0.90;;;;;;;28.92;43.17;101602.74;108366;1258;61435;-51
2023/08/21 11:06:39;;;;;;;5.80;1.10;;;;;;;29.22;42.84;101608.92;108238;1258;73630;-55
2023/08/21 11:09:12;;;;;;;3.00;1.00;;;;;;;29.59;43.29;101605.05;108040;1259;70887;-51
2023/08/21 11:11:39;;;;;;;4.50;0.90;;;;;;;29.92;41.73;101599.26;107582;1259;72957;-50
2023/08/21 11:14:05;;;;;;;2.80;1.00;;;;;;;29.93;39.99;101598.92;107933;1259;58940;-50
2023/08/21 11:16:31;;;;;;;4.70;1.20;;;;;;;29.85;39.84;101593.30;107935;1258;61187;-49
2023/08/21 11:19:03;;;;;;;3.30;0.90;;;;;;;29.69;39.99;101592.76;107535;1259;61128;-49